WXM80 ListenWXM80 Stop

You find our weather info also at:

UK Metoffice

WeatherCloud

Weather Underground

Northeastern Weather Network

AWEKAS

Citizen Weather Observer Program (CWOP)

HAMweather, WeatherForYou, PWS Weather


Weather Underground History page Text

Daily Summary for January 10, 2016 Units:  English    Metric   Both
« Previous Day
Next Day »
Daily Weekly Monthly Yearly Custom
  High: Low: Average:
Temperature: 60.9 °F 41.3 °F 51.3 °F
Dew Point: 60.0 °F 32.2 °F 49.1 °F
Humidity: 99 % 67 % 93 %
Wind Speed: 13.9 mph 1.7 mph 7.9 mph
Wind Gust: 24.2 mph - -
Wind:- - SSE
Pressure: 30.06 in 29.28 in -
Precipitation: 1.27 in    
Historical Graphs
 
 
Tabular Data for January 10, 2016
Time Temperature Dew Point Pressure Wind Wind Speed Wind Gust Humidity Rainfall Rate (Hourly)
00:02 45.4 °F 44.1 °F 30.06 in NE 3.3 mph 6.9 mph 95 % 0.00 in
00:07 45.5 °F 44.2 °F 30.05 in ENE 3.3 mph 5.0 mph 95 % 0.00 in
00:12 45.4 °F 44.1 °F 30.04 in NE 4.8 mph 8.1 mph 95 % 0.00 in
00:17 45.4 °F 44.1 °F 30.04 in East 4.3 mph 6.9 mph 95 % 0.00 in
00:23 45.4 °F 44.1 °F 30.04 in ENE 4.4 mph 6.9 mph 95 % 0.00 in
00:28 45.4 °F 44.1 °F 30.03 in East 5.2 mph 6.9 mph 95 % 0.00 in
00:33 45.4 °F 44.1 °F 30.03 in ENE 5.2 mph 6.9 mph 95 % 0.00 in
00:38 45.4 °F 44.1 °F 30.02 in ENE 4.7 mph 8.1 mph 95 % 0.00 in
00:43 45.4 °F 44.1 °F 30.02 in ENE 4.6 mph 6.9 mph 95 % 0.00 in
00:48 45.4 °F 44.1 °F 30.02 in East 5.5 mph 9.2 mph 95 % 0.00 in
00:53 45.4 °F 44.1 °F 30.01 in East 6.1 mph 9.2 mph 95 % 0.00 in
00:58 45.4 °F 44.1 °F 30.01 in East 6.6 mph 9.2 mph 95 % 0.00 in
01:03 45.4 °F 44.1 °F 30.00 in East 6.8 mph 9.2 mph 95 % 0.00 in
01:08 45.4 °F 44.1 °F 30.01 in East 6.4 mph 8.1 mph 95 % 0.00 in
01:14 45.4 °F 44.1 °F 30.01 in East 5.6 mph 8.1 mph 95 % 0.00 in
01:19 45.4 °F 44.1 °F 30.00 in East 6.0 mph 9.2 mph 95 % 0.00 in
01:24 45.4 °F 44.1 °F 30.00 in ENE 6.4 mph 9.2 mph 95 % 0.00 in
01:29 45.4 °F 44.1 °F 30.00 in East 7.5 mph 10.4 mph 95 % 0.00 in
01:34 45.4 °F 44.1 °F 29.99 in ENE 7.4 mph 9.2 mph 95 % 0.00 in
01:39 45.5 °F 44.2 °F 30.00 in ENE 7.7 mph 10.4 mph 95 % 0.00 in
01:44 45.5 °F 44.2 °F 29.99 in East 8.0 mph 10.4 mph 95 % 0.00 in
01:49 45.5 °F 44.2 °F 30.00 in ENE 7.7 mph 10.4 mph 95 % 0.00 in
01:54 45.5 °F 44.2 °F 29.99 in East 7.6 mph 10.4 mph 95 % 0.00 in
02:00 45.5 °F 44.2 °F 29.98 in East 7.5 mph 10.4 mph 95 % 0.00 in
02:05 45.5 °F 44.2 °F 29.97 in East 8.3 mph 11.5 mph 95 % 0.00 in
02:10 45.5 °F 44.2 °F 29.97 in East 8.0 mph 16.1 mph 95 % 0.00 in
02:15 45.5 °F 43.9 °F 29.96 in ENE 7.2 mph 12.7 mph 94 % 0.00 in
02:20 45.5 °F 43.9 °F 29.95 in ESE 9.6 mph 12.7 mph 94 % 0.00 in
02:25 45.4 °F 44.1 °F 29.95 in East 9.1 mph 13.8 mph 95 % 0.00 in
02:30 45.5 °F 44.2 °F 29.96 in East 8.9 mph 12.7 mph 95 % 0.00 in
02:35 45.5 °F 44.2 °F 29.96 in ENE 9.5 mph 14.0 mph 95 % 0.00 in
02:40 45.4 °F 44.1 °F 29.96 in ENE 7.9 mph 11.5 mph 95 % 0.00 in
02:45 45.4 °F 44.1 °F 29.96 in East 8.5 mph 11.5 mph 95 % 0.00 in
02:51 45.4 °F 44.1 °F 29.96 in East 8.0 mph 11.5 mph 95 % 0.00 in
02:56 45.4 °F 44.1 °F 29.95 in East 7.8 mph 10.4 mph 95 % 0.00 in
03:01 45.4 °F 44.1 °F 29.95 in East 9.3 mph 15.0 mph 95 % 0.00 in
03:06 45.4 °F 44.1 °F 29.94 in East 9.5 mph 12.7 mph 95 % 0.00 in
03:11 45.4 °F 44.1 °F 29.93 in East 9.9 mph 13.0 mph 95 % 0.00 in
03:16 45.4 °F 44.3 °F 29.93 in East 10.2 mph 13.0 mph 96 % 0.00 in
03:21 45.4 °F 44.3 °F 29.92 in East 9.1 mph 13.0 mph 96 % 0.00 in
03:26 45.3 °F 44.2 °F 29.90 in East 10.4 mph 16.0 mph 96 % 0.00 in
03:31 45.3 °F 44.2 °F 29.89 in East 12.0 mph 15.0 mph 96 % 0.00 in
03:36 45.3 °F 44.2 °F 29.88 in ESE 10.6 mph 15.0 mph 96 % 0.00 in
03:42 45.3 °F 44.2 °F 29.89 in East 12.4 mph 15.0 mph 96 % 0.00 in
03:47 45.2 °F 44.4 °F 29.87 in East 11.8 mph 15.0 mph 97 % 0.00 in
03:52 45.2 °F 44.4 °F 29.87 in East 12.1 mph 16.1 mph 97 % 0.00 in
03:57 45.2 °F 44.4 °F 29.88 in East 12.0 mph 17.3 mph 97 % 0.00 in
04:02 45.2 °F 44.4 °F 29.87 in ESE 13.4 mph 17.3 mph 97 % 0.00 in
04:07 45.2 °F 44.4 °F 29.88 in East 10.9 mph 13.8 mph 97 % 0.00 in
04:12 45.2 °F 44.4 °F 29.87 in ENE 10.5 mph 13.8 mph 97 % 0.01 in
04:17 45.2 °F 44.4 °F 29.87 in East 11.6 mph 15.0 mph 97 % 0.01 in
04:22 45.2 °F 44.4 °F 29.86 in East 8.5 mph 11.5 mph 97 % 0.01 in
04:27 45.1 °F 44.3 °F 29.86 in East 9.1 mph 11.5 mph 97 % 0.02 in
04:33 45.1 °F 44.3 °F 29.85 in ENE 9.5 mph 11.5 mph 97 % 0.02 in
04:38 45.2 °F 44.4 °F 29.86 in ENE 10.2 mph 13.8 mph 97 % 0.03 in
04:43 45.2 °F 44.4 °F 29.84 in East 9.3 mph 13.0 mph 97 % 0.04 in
04:48 45.2 °F 44.4 °F 29.83 in East 9.9 mph 13.0 mph 97 % 0.05 in
04:53 45.2 °F 44.4 °F 29.83 in ENE 11.0 mph 16.1 mph 97 % 0.05 in
04:58 45.2 °F 44.4 °F 29.83 in East 9.6 mph 15.0 mph 97 % 0.06 in
05:03 45.2 °F 44.4 °F 29.84 in East 11.1 mph 15.0 mph 97 % 0.07 in
05:08 45.2 °F 44.4 °F 29.83 in ENE 8.4 mph 11.5 mph 97 % 0.08 in
05:13 45.2 °F 44.4 °F 29.83 in ENE 9.9 mph 11.5 mph 97 % 0.08 in
05:18 45.2 °F 44.4 °F 29.83 in East 8.8 mph 12.7 mph 97 % 0.10 in
05:24 45.2 °F 44.4 °F 29.83 in ENE 7.7 mph 12.7 mph 97 % 0.11 in
05:29 45.2 °F 44.7 °F 29.84 in East 8.2 mph 11.5 mph 98 % 0.12 in
05:34 45.3 °F 44.5 °F 29.84 in East 8.9 mph 11.5 mph 97 % 0.12 in
05:39 45.3 °F 44.8 °F 29.83 in East 8.8 mph 11.5 mph 98 % 0.15 in
05:44 45.3 °F 44.8 °F 29.82 in East 9.8 mph 13.0 mph 98 % 0.16 in
05:49 45.3 °F 44.8 °F 29.80 in East 11.1 mph 13.8 mph 98 % 0.18 in
05:54 45.3 °F 44.8 °F 29.79 in ENE 11.1 mph 15.0 mph 98 % 0.23 in
05:59 45.3 °F 44.8 °F 29.79 in ENE 11.4 mph 16.1 mph 98 % 0.24 in
06:04 45.3 °F 44.8 °F 29.79 in ENE 11.3 mph 16.1 mph 98 % 0.25 in
06:09 45.4 °F 44.9 °F 29.78 in East 11.9 mph 15.0 mph 98 % 0.26 in
06:15 45.4 °F 44.9 °F 29.77 in East 10.5 mph 15.0 mph 98 % 0.25 in
06:20 45.5 °F 45.0 °F 29.76 in East 11.2 mph 16.1 mph 98 % 0.27 in
06:25 45.5 °F 45.0 °F 29.77 in East 11.4 mph 14.0 mph 98 % 0.27 in
06:30 45.5 °F 45.0 °F 29.76 in East 13.4 mph 17.3 mph 98 % 0.27 in
06:35 45.6 °F 45.1 °F 29.75 in East 11.1 mph 15.0 mph 98 % 0.27 in
06:40 45.6 °F 45.1 °F 29.75 in East 13.9 mph 18.0 mph 98 % 0.27 in
06:45 45.6 °F 45.1 °F 29.74 in NE 12.2 mph 17.0 mph 98 % 0.27 in
06:50 45.7 °F 45.2 °F 29.73 in ENE 10.9 mph 15.0 mph 98 % 0.26 in
06:55 45.7 °F 45.2 °F 29.72 in East 9.7 mph 13.8 mph 98 % 0.21 in
07:00 45.9 °F 45.4 °F 29.72 in East 12.0 mph 14.0 mph 98 % 0.21 in
07:06 46.0 °F 45.5 °F 29.71 in ESE 10.4 mph 12.7 mph 98 % 0.19 in
07:11 46.1 °F 45.6 °F 29.71 in East 12.0 mph 16.1 mph 98 % 0.19 in
07:16 46.1 °F 45.6 °F 29.71 in East 9.2 mph 16.1 mph 98 % 0.20 in
07:21 46.2 °F 45.7 °F 29.70 in ENE 8.1 mph 12.7 mph 98 % 0.20 in
07:26 46.3 °F 45.8 °F 29.70 in ENE 10.8 mph 14.0 mph 98 % 0.20 in
07:31 46.3 °F 45.8 °F 29.67 in ENE 10.7 mph 13.8 mph 98 % 0.22 in
07:36 46.4 °F 45.9 °F 29.66 in ENE 9.8 mph 17.3 mph 98 % 0.21 in
07:41 46.4 °F 45.9 °F 29.65 in East 8.6 mph 12.7 mph 98 % 0.21 in
07:46 46.5 °F 46.0 °F 29.64 in East 9.6 mph 13.8 mph 98 % 0.21 in
07:51 46.7 °F 46.2 °F 29.64 in East 7.4 mph 12.7 mph 98 % 0.20 in
07:57 46.9 °F 46.4 °F 29.63 in East 5.8 mph 11.0 mph 98 % 0.21 in
08:02 49.7 °F 49.2 °F 29.63 in East 8.3 mph 11.5 mph 98 % 0.23 in
08:07 52.3 °F 51.8 °F 29.61 in East 10.0 mph 14.0 mph 98 % 0.23 in
08:12 53.6 °F 53.0 °F 29.61 in ESE 7.5 mph 11.5 mph 98 % 0.24 in
08:17 54.4 °F 54.1 °F 29.60 in East 13.2 mph 18.4 mph 99 % 0.23 in
08:22 54.8 °F 54.2 °F 29.60 in East 7.4 mph 11.5 mph 98 % 0.23 in
08:27 55.0 °F 54.7 °F 29.59 in ESE 10.3 mph 21.9 mph 99 % 0.22 in
08:32 55.3 °F 55.0 °F 29.59 in East 10.2 mph 15.0 mph 99 % 0.19 in
08:37 55.4 °F 54.8 °F 29.57 in ESE 10.6 mph 17.0 mph 98 % 0.18 in
08:42 55.4 °F 55.1 °F 29.56 in East 7.6 mph 13.8 mph 99 % 0.17 in
08:48 55.4 °F 55.1 °F 29.57 in ENE 9.4 mph 18.4 mph 99 % 0.17 in
08:53 55.6 °F 55.3 °F 29.58 in ESE 10.2 mph 18.4 mph 99 % 0.17 in
08:58 55.7 °F 55.4 °F 29.58 in ENE 12.2 mph 20.7 mph 99 % 0.16 in
09:03 55.7 °F 55.4 °F 29.57 in ESE 6.3 mph 11.5 mph 99 % 0.15 in
09:08 55.7 °F 55.4 °F 29.58 in SSE 9.3 mph 16.1 mph 99 % 0.14 in
09:13 55.8 °F 55.2 °F 29.58 in SE 7.2 mph 11.5 mph 98 % 0.13 in
09:18 55.9 °F 55.3 °F 29.58 in SE 7.4 mph 16.1 mph 98 % 0.13 in
09:23 56.0 °F 55.4 °F 29.57 in East 6.7 mph 11.5 mph 98 % 0.13 in
09:28 56.2 °F 55.9 °F 29.57 in ESE 5.9 mph 11.5 mph 99 % 0.13 in
09:33 56.3 °F 56.0 °F 29.56 in SE 7.2 mph 11.5 mph 99 % 0.14 in
09:39 56.3 °F 55.7 °F 29.56 in SE 7.8 mph 11.5 mph 98 % 0.15 in
09:44 56.3 °F 55.7 °F 29.56 in South 8.1 mph 12.7 mph 98 % 0.17 in
09:49 56.6 °F 56.0 °F 29.55 in SSE 13.1 mph 19.6 mph 98 % 0.18 in
09:54 57.1 °F 56.5 °F 29.56 in South 7.5 mph 11.5 mph 98 % 0.17 in
09:59 57.3 °F 56.7 °F 29.55 in SE 6.2 mph 10.4 mph 98 % 0.17 in
10:04 57.5 °F 56.9 °F 29.53 in South 9.0 mph 15.0 mph 98 % 0.17 in
10:09 57.9 °F 57.3 °F 29.54 in SSE 9.8 mph 24.2 mph 98 % 0.17 in
10:14 58.1 °F 57.5 °F 29.53 in SSE 10.7 mph 19.6 mph 98 % 0.16 in
10:19 58.2 °F 57.6 °F 29.54 in SSW 9.2 mph 18.4 mph 98 % 0.15 in
10:24 58.3 °F 57.7 °F 29.53 in SE 6.1 mph 15.0 mph 98 % 0.15 in
10:30 58.4 °F 57.8 °F 29.52 in South 5.5 mph 11.5 mph 98 % 0.15 in
10:35 58.4 °F 57.8 °F 29.52 in SW 9.1 mph 15.0 mph 98 % 0.14 in
10:40 58.3 °F 57.7 °F 29.51 in SE 6.1 mph 16.1 mph 98 % 0.13 in
10:45 58.4 °F 57.8 °F 29.51 in SSE 6.1 mph 16.0 mph 98 % 0.11 in
10:50 58.4 °F 57.8 °F 29.50 in South 8.3 mph 18.4 mph 98 % 0.10 in
10:55 58.4 °F 57.8 °F 29.50 in South 8.0 mph 12.7 mph 98 % 0.10 in
11:00 58.4 °F 57.8 °F 29.49 in South 10.0 mph 19.6 mph 98 % 0.09 in
11:05 58.6 °F 58.0 °F 29.49 in South 7.1 mph 11.5 mph 98 % 0.09 in
11:10 58.6 °F 58.0 °F 29.48 in SSW 8.4 mph 13.8 mph 98 % 0.08 in
11:15 58.8 °F 58.0 °F 29.47 in SSE 10.3 mph 16.0 mph 97 % 0.07 in
11:21 59.0 °F 58.4 °F 29.46 in South 9.6 mph 15.0 mph 98 % 0.08 in
11:26 59.3 °F 58.7 °F 29.46 in South 6.9 mph 13.8 mph 98 % 0.07 in
11:31 59.4 °F 58.8 °F 29.45 in South 7.3 mph 12.7 mph 98 % 0.06 in
11:36 59.6 °F 59.0 °F 29.44 in SSW 4.6 mph 11.5 mph 98 % 0.05 in
11:41 59.8 °F 59.2 °F 29.44 in South 8.3 mph 18.4 mph 98 % 0.04 in
11:46 60.0 °F 59.4 °F 29.43 in South 6.8 mph 12.0 mph 98 % 0.04 in
11:51 60.1 °F 59.5 °F 29.43 in SSW 4.7 mph 10.4 mph 98 % 0.04 in
11:56 60.2 °F 59.6 °F 29.42 in SE 8.7 mph 12.7 mph 98 % 0.03 in
12:01 60.3 °F 59.7 °F 29.42 in SSW 7.9 mph 17.3 mph 98 % 0.02 in
12:06 60.3 °F 59.4 °F 29.41 in South 6.6 mph 11.5 mph 97 % 0.02 in
12:12 60.3 °F 59.4 °F 29.41 in SSW 5.5 mph 11.5 mph 97 % 0.02 in
12:17 60.3 °F 59.4 °F 29.41 in South 6.8 mph 17.3 mph 97 % 0.01 in
12:22 60.3 °F 59.4 °F 29.41 in SSE 11.7 mph 23.0 mph 97 % 0.02 in
12:27 60.5 °F 59.6 °F 29.41 in SSW 12.4 mph 21.9 mph 97 % 0.02 in
12:32 60.5 °F 59.6 °F 29.40 in SW 7.2 mph 15.0 mph 97 % 0.02 in
12:37 60.7 °F 59.8 °F 29.39 in SSW 8.7 mph 15.0 mph 97 % 0.02 in
12:42 60.8 °F 59.9 °F 29.38 in South 5.0 mph 11.5 mph 97 % 0.02 in
12:47 60.9 °F 60.0 °F 29.37 in South 10.3 mph 11.5 mph 97 % 0.01 in
12:52 60.8 °F 59.7 °F 29.37 in South 6.3 mph 11.5 mph 96 % 0.01 in
12:57 60.8 °F 59.7 °F 29.36 in South 9.5 mph 11.5 mph 96 % 0.01 in
13:03 60.9 °F 59.8 °F 29.36 in South 9.1 mph 17.3 mph 96 % 0.02 in
13:08 60.9 °F 59.8 °F 29.36 in SSE 7.3 mph 10.4 mph 96 % 0.02 in
13:13 60.9 °F 59.8 °F 29.36 in SSE 7.3 mph 11.5 mph 96 % 0.02 in
13:18 60.8 °F 59.7 °F 29.36 in South 9.7 mph 14.0 mph 96 % 0.02 in
13:23 60.8 °F 59.7 °F 29.36 in SSW 8.6 mph 12.7 mph 96 % 0.01 in
13:28 60.7 °F 59.6 °F 29.35 in SSE 9.4 mph 17.0 mph 96 % 0.01 in
13:33 60.7 °F 59.6 °F 29.35 in SSW 7.2 mph 23.0 mph 96 % 0.02 in
13:38 60.6 °F 59.5 °F 29.34 in SSW 5.5 mph 11.5 mph 96 % 0.02 in
13:43 60.5 °F 59.4 °F 29.33 in SW 10.6 mph 15.0 mph 96 % 0.02 in
13:48 60.4 °F 59.3 °F 29.33 in South 10.9 mph 18.0 mph 96 % 0.02 in
13:54 60.4 °F 59.3 °F 29.33 in SW 4.6 mph 19.6 mph 96 % 0.02 in
13:59 60.2 °F 59.1 °F 29.33 in SE 4.3 mph 16.1 mph 96 % 0.01 in
14:04 60.1 °F 59.0 °F 29.33 in SSW 6.3 mph 11.5 mph 96 % 0.01 in
14:14 59.8 °F 58.7 °F 29.32 in SSW 8.0 mph 17.3 mph 96 % 0.02 in
14:19 59.5 °F 58.1 °F 29.32 in SSE 9.5 mph 20.7 mph 95 % 0.02 in
14:24 59.3 °F 58.2 °F 29.31 in South 6.1 mph 13.8 mph 96 % 0.02 in
14:29 59.2 °F 58.1 °F 29.31 in SSW 7.6 mph 11.5 mph 96 % 0.02 in
14:34 59.1 °F 58.0 °F 29.31 in South 7.6 mph 10.0 mph 96 % 0.01 in
14:35 58.1 °F 57.3 °F 29.29 in SSW 7.0 mph 23.0 mph 97 % 0.00 in
14:39 59.0 °F 57.9 °F 29.31 in South 3.1 mph 9.2 mph 96 % 0.01 in
14:45 58.9 °F 57.8 °F 29.30 in South 6.2 mph 9.2 mph 96 % 0.02 in
14:50 58.8 °F 57.7 °F 29.30 in SW 8.5 mph 11.5 mph 96 % 0.02 in
14:55 58.7 °F 57.6 °F 29.30 in ESE 6.5 mph 11.5 mph 96 % 0.02 in
15:00 58.7 °F 57.6 °F 29.30 in South 3.0 mph 8.1 mph 96 % 0.02 in
15:05 58.6 °F 57.5 °F 29.30 in SSW 6.3 mph 11.5 mph 96 % 0.02 in
15:10 58.4 °F 57.3 °F 29.30 in South 11.2 mph 19.6 mph 96 % 0.01 in
15:15 58.3 °F 57.2 °F 29.29 in SSE 7.4 mph 15.0 mph 96 % 0.01 in
15:20 58.2 °F 57.1 °F 29.29 in SSW 6.7 mph 11.5 mph 96 % 0.01 in
15:25 58.2 °F 57.4 °F 29.29 in South 5.9 mph 8.1 mph 97 % 0.01 in
15:42 58.0 °F 57.2 °F 29.29 in South 10.0 mph 10.4 mph 97 % 0.02 in
15:47 57.9 °F 57.1 °F 29.29 in South 7.2 mph 8.1 mph 97 % 0.01 in
15:52 57.7 °F 56.9 °F 29.29 in SSW 9.0 mph 13.8 mph 97 % 0.01 in
15:57 57.6 °F 56.8 °F 29.29 in SW 9.8 mph 11.0 mph 97 % 0.01 in
16:03 57.4 °F 56.6 °F 29.28 in SW 9.2 mph 15.0 mph 97 % 0.01 in
16:08 57.2 °F 56.1 °F 29.28 in South 8.4 mph 13.8 mph 96 % 0.01 in
16:23 56.7 °F 55.6 °F 29.28 in SSW 6.8 mph 13.8 mph 96 % 0.01 in
16:28 56.4 °F 55.3 °F 29.28 in South 8.7 mph 11.5 mph 96 % 0.01 in
16:33 56.3 °F 55.2 °F 29.28 in South 6.8 mph 11.5 mph 96 % 0.00 in
16:38 56.1 °F 55.0 °F 29.29 in SSW 9.5 mph 18.4 mph 96 % 0.00 in
16:43 56.0 °F 54.9 °F 29.29 in South 7.3 mph 19.6 mph 96 % 0.00 in
16:48 55.9 °F 54.8 °F 29.29 in SSW 6.6 mph 17.3 mph 96 % 0.00 in
16:54 55.8 °F 54.7 °F 29.31 in SSW 9.3 mph 16.1 mph 96 % 0.00 in
16:59 55.8 °F 54.7 °F 29.31 in SW 3.2 mph 6.9 mph 96 % 0.00 in
17:04 55.7 °F 54.6 °F 29.31 in SSW 6.1 mph 10.4 mph 96 % 0.00 in
17:09 55.6 °F 54.5 °F 29.32 in SSW 4.9 mph 10.0 mph 96 % 0.00 in
17:14 55.5 °F 54.4 °F 29.31 in South 4.6 mph 9.2 mph 96 % 0.00 in
17:19 55.4 °F 54.3 °F 29.31 in SSW 4.6 mph 11.5 mph 96 % 0.00 in
17:24 55.3 °F 54.2 °F 29.31 in South 8.6 mph 11.5 mph 96 % 0.00 in
17:29 55.1 °F 54.0 °F 29.32 in WSW 5.2 mph 10.4 mph 96 % 0.00 in
17:34 54.9 °F 53.8 °F 29.32 in SSW 5.0 mph 6.9 mph 96 % 0.00 in
17:40 54.7 °F 53.6 °F 29.32 in SW 4.8 mph 10.4 mph 96 % 0.00 in
17:45 54.5 °F 53.1 °F 29.32 in SSW 4.2 mph 9.2 mph 95 % 0.01 in
17:50 54.3 °F 52.9 °F 29.33 in South 3.1 mph 6.9 mph 95 % 0.01 in
17:55 54.2 °F 52.8 °F 29.33 in SW 2.9 mph 6.9 mph 95 % 0.01 in
18:00 54.0 °F 52.6 °F 29.32 in South 3.4 mph 4.6 mph 95 % 0.01 in
18:05 53.9 °F 52.5 °F 29.32 in SW 2.4 mph 4.6 mph 95 % 0.01 in
18:10 53.7 °F 52.3 °F 29.32 in SW 1.9 mph 4.6 mph 95 % 0.01 in
18:15 53.6 °F 52.2 °F 29.34 in South 4.4 mph 8.0 mph 95 % 0.01 in
18:20 53.5 °F 52.1 °F 29.34 in SSW 1.7 mph 4.0 mph 95 % 0.01 in
18:25 53.4 °F 52.0 °F 29.34 in South 4.6 mph 6.9 mph 95 % 0.01 in
18:31 53.3 °F 51.9 °F 29.34 in SSW 3.0 mph 8.1 mph 95 % 0.01 in
18:36 53.1 °F 51.7 °F 29.34 in SSW 5.0 mph 8.1 mph 95 % 0.01 in
18:46 52.8 °F 51.1 °F 29.34 in SSW 2.3 mph 5.8 mph 94 % 0.01 in
18:51 52.7 °F 51.0 °F 29.35 in SW 4.0 mph 6.9 mph 94 % 0.01 in
18:56 52.6 °F 50.9 °F 29.35 in SSW 3.7 mph 6.9 mph 94 % 0.01 in
19:01 52.4 °F 50.7 °F 29.35 in SW 2.6 mph 4.6 mph 94 % 0.01 in
19:06 52.3 °F 50.3 °F 29.35 in SSW 1.7 mph 5.8 mph 93 % 0.01 in
19:11 52.0 °F 50.0 °F 29.35 in SW 3.4 mph 3.5 mph 93 % 0.01 in
19:22 51.6 °F 49.6 °F 29.35 in SW 3.0 mph 3.0 mph 93 % 0.01 in
19:27 51.5 °F 49.5 °F 29.35 in SSW 2.3 mph 3.5 mph 93 % 0.01 in
19:32 51.3 °F 49.3 °F 29.35 in SSW 4.8 mph 8.1 mph 93 % 0.01 in
19:37 51.1 °F 48.9 °F 29.36 in WSW 3.6 mph 6.9 mph 92 % 0.01 in
19:42 51.0 °F 48.5 °F 29.36 in SW 7.1 mph 11.5 mph 91 % 0.01 in
19:47 51.0 °F 48.2 °F 29.36 in WSW 2.8 mph 10.4 mph 90 % 0.00 in
19:52 51.0 °F 47.9 °F 29.36 in SW 7.1 mph 16.1 mph 89 % 0.00 in
19:57 51.1 °F 47.4 °F 29.36 in SW 8.1 mph 12.7 mph 87 % 0.00 in
20:02 51.3 °F 46.6 °F 29.36 in West 7.7 mph 10.4 mph 84 % 0.00 in
20:07 51.3 °F 46.3 °F 29.37 in West 5.6 mph 10.4 mph 83 % 0.01 in
20:13 51.3 °F 46.3 °F 29.37 in WSW 6.9 mph 11.5 mph 83 % 0.01 in
20:18 51.4 °F 46.1 °F 29.37 in West 4.9 mph 11.5 mph 82 % 0.01 in
20:23 51.4 °F 45.8 °F 29.37 in SSW 6.4 mph 10.4 mph 81 % 0.01 in
20:28 51.4 °F 45.4 °F 29.38 in SW 6.1 mph 13.8 mph 80 % 0.01 in
20:33 51.4 °F 44.8 °F 29.39 in SSW 6.6 mph 18.4 mph 78 % 0.01 in
20:38 51.5 °F 45.2 °F 29.39 in WSW 9.9 mph 13.8 mph 79 % 0.01 in
20:43 51.4 °F 44.8 °F 29.39 in West 12.4 mph 19.6 mph 78 % 0.01 in
20:48 51.2 °F 44.6 °F 29.39 in SW 10.5 mph 17.3 mph 78 % 0.01 in
20:58 50.8 °F 43.8 °F 29.39 in WSW 6.3 mph 17.3 mph 77 % 0.01 in
21:04 50.5 °F 43.9 °F 29.40 in WSW 5.4 mph 9.2 mph 78 % 0.01 in
21:09 50.2 °F 43.3 °F 29.40 in SW 7.1 mph 18.4 mph 77 % 0.00 in
21:14 49.9 °F 42.6 °F 29.40 in WSW 11.1 mph 17.0 mph 76 % 0.00 in
21:19 49.6 °F 42.3 °F 29.41 in West 9.6 mph 17.3 mph 76 % 0.00 in
21:24 49.4 °F 41.8 °F 29.42 in WSW 11.5 mph 19.6 mph 75 % 0.00 in
21:29 49.0 °F 40.7 °F 29.43 in WSW 11.3 mph 19.6 mph 73 % 0.00 in
21:34 48.6 °F 40.0 °F 29.43 in West 9.1 mph 15.0 mph 72 % 0.00 in
21:39 48.1 °F 39.5 °F 29.44 in WSW 7.3 mph 16.1 mph 72 % 0.00 in
21:44 47.6 °F 37.6 °F 29.45 in West 11.9 mph 16.0 mph 68 % 0.00 in
21:49 47.0 °F 37.0 °F 29.45 in WNW 5.0 mph 18.4 mph 68 % 0.00 in
21:55 46.5 °F 36.1 °F 29.46 in WNW 11.4 mph 19.6 mph 67 % 0.00 in
22:00 46.0 °F 35.7 °F 29.47 in WSW 9.4 mph 17.3 mph 67 % 0.00 in
22:05 45.4 °F 35.1 °F 29.47 in WSW 11.4 mph 23.0 mph 67 % 0.00 in
22:10 44.9 °F 34.6 °F 29.47 in NW 9.9 mph 18.4 mph 67 % 0.00 in
22:15 44.5 °F 34.2 °F 29.48 in SW 11.3 mph 17.3 mph 67 % 0.00 in
22:20 44.2 °F 34.3 °F 29.49 in West 7.0 mph 11.5 mph 68 % 0.00 in
22:25 44.0 °F 34.1 °F 29.49 in WNW 8.5 mph 15.0 mph 68 % 0.00 in
22:30 43.8 °F 34.3 °F 29.49 in WSW 9.0 mph 18.0 mph 69 % 0.00 in
22:35 43.6 °F 34.1 °F 29.50 in West 8.6 mph 10.4 mph 69 % 0.00 in
22:40 43.3 °F 33.4 °F 29.50 in West 6.3 mph 15.0 mph 68 % 0.00 in
22:46 43.2 °F 33.3 °F 29.51 in West 11.4 mph 17.0 mph 68 % 0.00 in
22:56 42.8 °F 33.7 °F 29.51 in SSW 4.4 mph 10.4 mph 70 % 0.00 in
23:01 42.6 °F 33.5 °F 29.52 in SW 3.3 mph 9.2 mph 70 % 0.00 in
23:06 42.4 °F 32.9 °F 29.52 in WNW 7.6 mph 11.5 mph 69 % 0.00 in
23:11 42.2 °F 33.1 °F 29.52 in WSW 5.0 mph 12.7 mph 70 % 0.00 in
23:16 42.0 °F 32.9 °F 29.52 in WSW 6.4 mph 13.8 mph 70 % 0.00 in
23:21 41.8 °F 32.7 °F 29.53 in West 5.3 mph 12.7 mph 70 % 0.00 in
23:26 41.7 °F 32.6 °F 29.53 in NW 11.1 mph 17.3 mph 70 % 0.00 in
23:31 41.6 °F 32.5 °F 29.53 in SSW 10.1 mph 16.0 mph 70 % 0.00 in
23:37 41.6 °F 32.5 °F 29.53 in West 7.0 mph 11.0 mph 70 % 0.00 in
23:42 41.5 °F 32.4 °F 29.54 in WSW 6.1 mph 17.3 mph 70 % 0.00 in
23:47 41.4 °F 32.3 °F 29.54 in WNW 5.6 mph 17.3 mph 70 % 0.00 in
23:52 41.4 °F 32.7 °F 29.55 in WSW 11.8 mph 19.6 mph 71 % 0.00 in
23:57 41.3 °F 32.2 °F 29.55 in West 7.7 mph 15.0 mph 70 % 0.00 in
Crab Meadow Weather
Compliments of Weather Underground - 3 mb

Script developed by  Jim McMurry - jmcmurry@mwt.net Adapted for the template by  Wim van der Kuil - Leuven-Template.eu

Weather Terms: Dense Fog Advisory - Widespread dense fog reducing visibility to less than 1/4 mile.